Time;durP1;ratioP1;P1;durP2;ratioP2;P2;SDS_P1;SDS_P2;PMS_P1;PMS_P2;Temp;Humidity;BMP_temperature;BMP_pressure;BME280_temperature;BME280_humidity;BME280_pressure;Samples;Min_cycle;Max_cycle;Signal;HPM_P1;HPM_P2
2022/12/07 00:00:43;;;;;;;1.45;0.90;;;;;;;-5.13;41.38;100631.13;4975312;28;20088;-49
2022/12/07 00:03:09;;;;;;;3.70;1.20;;;;;;;-5.10;41.05;100639.69;4988624;28;20468;-49
2022/12/07 00:05:34;;;;;;;4.05;1.42;;;;;;;-5.15;40.85;100624.28;4976572;28;20576;-47
2022/12/07 00:08:00;;;;;;;3.53;1.10;;;;;;;-5.12;40.92;100639.59;4990222;28;20042;-46
2022/12/07 00:10:26;;;;;;;2.95;1.38;;;;;;;-5.33;40.64;100614.19;4971908;28;20054;-46
2022/12/07 00:12:54;;;;;;;2.72;1.58;;;;;;;-5.17;40.86;100626.72;4986099;28;20039;-48
2022/12/07 00:15:20;;;;;;;3.95;1.33;;;;;;;-5.16;41.01;100640.28;4982807;28;20049;-45
2022/12/07 00:17:46;;;;;;;1.38;0.80;;;;;;;-5.14;40.76;100638.69;4987835;28;20117;-46
2022/12/07 00:20:12;;;;;;;2.00;1.17;;;;;;;-5.16;40.80;100646.22;4985763;28;20038;-47
2022/12/07 00:22:37;;;;;;;1.80;1.30;;;;;;;-5.37;40.47;100608.94;4995343;28;20038;-44
2022/12/07 00:25:03;;;;;;;4.18;1.50;;;;;;;-5.17;40.83;100636.00;5010148;28;20034;-46
2022/12/07 00:27:30;;;;;;;2.65;0.90;;;;;;;-5.19;40.35;100638.50;4990330;28;20841;-46
2022/12/07 00:29:56;;;;;;;3.17;1.20;;;;;;;-5.37;40.53;100601.31;4991895;28;20049;-48
2022/12/07 00:32:22;;;;;;;2.15;0.90;;;;;;;-5.23;41.01;100630.66;4991603;28;20122;-46
2022/12/07 00:34:48;;;;;;;3.55;1.30;;;;;;;-5.27;41.32;100632.19;4991722;28;20071;-51
2022/12/07 00:37:13;;;;;;;1.83;1.10;;;;;;;-5.28;41.48;100640.59;4988599;28;20171;-48
2022/12/07 00:39:39;;;;;;;3.35;1.35;;;;;;;-5.28;40.79;100633.00;4992410;28;20049;-44
2022/12/07 00:42:05;;;;;;;1.55;1.00;;;;;;;-5.36;41.57;100641.94;4983361;28;20050;-46
2022/12/07 00:44:31;;;;;;;3.05;0.55;;;;;;;-5.33;41.93;100649.66;4970891;28;20519;-47
2022/12/07 00:46:57;;;;;;;4.25;1.58;;;;;;;-5.35;41.28;100640.28;4993754;28;20119;-46
2022/12/07 00:49:23;;;;;;;3.88;1.50;;;;;;;-5.36;41.67;100646.16;4976287;28;20039;-50
2022/12/07 00:51:49;;;;;;;2.47;1.23;;;;;;;-5.39;41.64;100630.81;4986721;28;20078;-47
2022/12/07 00:54:15;;;;;;;3.35;1.55;;;;;;;-5.40;41.83;100650.22;4985257;28;20050;-46
2022/12/07 00:56:41;;;;;;;2.83;1.60;;;;;;;-5.45;42.07;100633.06;4985684;28;20058;-48
2022/12/07 00:59:06;;;;;;;4.28;1.30;;;;;;;-5.66;42.19;100597.53;4953845;28;20045;-47
2022/12/07 01:01:36;;;;;;;6.75;1.20;;;;;;;-5.50;42.44;100634.53;4979583;28;20472;-48
2022/12/07 01:04:02;;;;;;;7.13;1.92;;;;;;;-5.52;43.06;100643.72;4975010;28;20037;-46
2022/12/07 01:06:28;;;;;;;1.42;0.80;;;;;;;-5.56;43.42;100650.31;4986445;28;20043;-43
2022/12/07 01:08:54;;;;;;;7.57;1.58;;;;;;;-5.58;43.18;100649.38;4972705;28;20470;-46
2022/12/07 01:11:23;;;;;;;4.72;1.80;;;;;;;-5.62;43.23;100640.78;4996955;28;20076;-49
2022/12/07 01:13:54;;;;;;;4.00;1.40;;;;;;;-5.82;43.56;100613.69;4975757;28;20073;-46
2022/12/07 01:16:22;;;;;;;3.40;1.50;;;;;;;-5.69;43.70;100637.88;4989520;28;20049;-50
2022/12/07 01:18:50;;;;;;;3.92;1.45;;;;;;;-5.75;43.55;100641.00;5002584;28;20470;-48
2022/12/07 01:21:37;;;;;;;4.97;1.73;;;;;;;-5.80;44.16;100634.00;4969901;28;20046;-49
2022/12/07 01:24:05;;;;;;;4.55;1.40;;;;;;;-5.86;44.28;100621.09;4972261;28;20038;-49
2022/12/07 01:26:30;;;;;;;2.28;1.42;;;;;;;-5.86;44.24;100631.22;4988710;28;20046;-46
2022/12/07 01:28:58;;;;;;;3.80;1.73;;;;;;;-6.03;44.30;100612.75;4969859;28;20422;-48
2022/12/07 01:31:26;;;;;;;4.40;1.50;;;;;;;-5.90;44.48;100630.22;4988907;28;20050;-49
2022/12/07 01:33:55;;;;;;;4.00;1.70;;;;;;;-5.90;44.43;100636.94;4972374;28;20133;-45
2022/12/07 01:36:24;;;;;;;3.80;1.35;;;;;;;-5.92;44.34;100629.28;4983724;28;20072;-45
2022/12/07 01:38:52;;;;;;;2.40;1.42;;;;;;;-5.93;44.28;100625.03;4987671;28;20049;-48
2022/12/07 01:41:19;;;;;;;4.32;1.60;;;;;;;-5.96;44.54;100619.78;4980122;28;20127;-48
2022/12/07 01:44:20;;;;;;;2.13;1.20;;;;;;;-5.97;44.56;100623.16;4988784;28;20045;-47
2022/12/07 01:46:53;;;;;;;4.28;1.58;;;;;;;-6.01;44.41;100622.13;4974502;28;20042;-45
2022/12/07 01:49:23;;;;;;;2.50;1.13;;;;;;;-6.02;44.62;100622.91;4986134;28;20046;-46
2022/12/07 01:51:49;;;;;;;2.45;1.42;;;;;;;-5.96;43.94;100611.34;4989187;28;20387;-48
2022/12/07 01:54:16;;;;;;;3.55;1.55;;;;;;;-5.95;43.58;100606.34;4988458;28;20069;-46
2022/12/07 01:56:50;;;;;;;3.53;1.50;;;;;;;-5.97;43.80;100613.03;4985697;28;20054;-46
2022/12/07 01:59:17;;;;;;;4.45;2.03;;;;;;;-6.20;44.50;100596.75;4978954;28;20728;-46
2022/12/07 02:01:43;;;;;;;4.40;1.75;;;;;;;-6.34;44.30;100557.31;4982427;28;20545;-50
2022/12/07 02:04:10;;;;;;;6.22;1.83;;;;;;;-6.20;44.26;100590.84;4971211;28;20129;-46
2022/12/07 02:06:36;;;;;;;4.35;1.88;;;;;;;-6.10;44.75;100605.66;4971212;28;20050;-47
2022/12/07 02:09:02;;;;;;;5.15;1.75;;;;;;;-6.11;44.31;100606.44;4986833;28;20200;-47
2022/12/07 02:11:28;;;;;;;2.15;1.20;;;;;;;-6.12;44.73;100607.22;4981031;28;20050;-45
2022/12/07 02:13:54;;;;;;;3.75;1.42;;;;;;;-6.15;44.43;100607.97;4980976;28;20049;-46
2022/12/07 02:16:44;;;;;;;3.67;1.83;;;;;;;-6.19;44.76;100603.56;4990157;28;20060;-47
2022/12/07 02:19:28;;;;;;;3.17;1.80;;;;;;;-6.22;44.73;100610.13;4988099;28;20120;-47
2022/12/07 02:22:07;;;;;;;5.93;1.95;;;;;;;-6.43;45.19;100585.53;4997931;28;20505;-50
2022/12/07 02:24:57;;;;;;;3.57;1.80;;;;;;;-6.26;44.74;100604.06;4991931;28;20430;-46
2022/12/07 02:27:26;;;;;;;3.03;1.60;;;;;;;-6.28;44.92;100603.09;4983751;28;20062;-45
2022/12/07 02:30:03;;;;;;;3.40;1.67;;;;;;;-6.30;45.34;100606.38;4985128;28;20042;-47
2022/12/07 02:32:35;;;;;;;5.65;1.67;;;;;;;-6.32;45.29;100602.91;4972583;28;20042;-46
2022/12/07 02:35:06;;;;;;;3.40;1.52;;;;;;;-6.35;45.21;100595.19;4988592;28;20092;-47
2022/12/07 02:37:41;;;;;;;4.38;1.90;;;;;;;-6.39;45.60;100605.94;4989157;28;20483;-47
2022/12/07 02:40:21;;;;;;;2.97;1.40;;;;;;;-6.40;45.44;100600.03;4988937;28;20046;-48
2022/12/07 02:42:50;;;;;;;4.57;2.22;;;;;;;-6.40;45.80;100600.03;4987996;28;20411;-49
2022/12/07 02:45:18;;;;;;;7.40;2.25;;;;;;;-6.49;45.73;100587.78;4987890;28;20038;-47
2022/12/07 02:47:48;;;;;;;6.60;1.77;;;;;;;-6.58;45.73;100577.22;4971517;28;20061;-45
2022/12/07 02:50:13;;;;;;;;;;;;;;;-6.47;45.70;100597.97;4973936;28;20124;-48
2022/12/07 02:52:39;;;;;;;3.53;1.52;;;;;;;-6.55;45.66;100599.28;4991791;28;20075;-47
2022/12/07 02:55:06;;;;;;;4.40;1.45;;;;;;;-6.53;46.31;100596.03;4965047;28;20526;-48
2022/12/07 02:58:03;;;;;;;6.43;1.80;;;;;;;-6.57;45.95;100590.75;4988703;28;20047;-48
2022/12/07 03:00:31;;;;;;;4.47;1.90;;;;;;;-6.76;46.04;100560.31;4989726;28;20042;-46
2022/12/07 03:03:04;;;;;;;4.30;1.65;;;;;;;-6.57;46.12;100604.25;4991690;28;20129;-44
2022/12/07 03:05:54;;;;;;;3.55;1.58;;;;;;;-6.59;46.38;100600.78;4963631;28;20519;-48
2022/12/07 03:08:44;;;;;;;3.92;1.90;;;;;;;-6.64;46.48;100598.81;4980395;28;20665;-48
2022/12/07 03:11:16;;;;;;;4.25;2.13;;;;;;;-6.68;46.49;100590.22;4972998;28;20051;-50
2022/12/07 03:14:13;;;;;;;4.80;2.00;;;;;;;-6.69;46.96;100602.78;4975903;28;20045;-48
2022/12/07 03:16:44;;;;;;;6.03;1.85;;;;;;;-6.73;46.92;100600.91;4975323;28;20265;-48
2022/12/07 03:19:21;;;;;;;5.57;1.80;;;;;;;-6.71;47.14;100601.88;4985848;28;20180;-47
2022/12/07 03:21:55;;;;;;;4.70;2.10;;;;;;;-6.69;46.75;100597.72;4977467;28;20055;-45
2022/12/07 03:24:26;;;;;;;5.00;2.15;;;;;;;-6.70;46.69;100601.94;4974648;28;20042;-45
2022/12/07 03:26:58;;;;;;;3.55;1.92;;;;;;;-6.93;47.19;100560.38;5003316;28;20107;-47
2022/12/07 03:29:31;;;;;;;4.18;2.10;;;;;;;-7.11;47.19;100535.84;4980393;28;20049;-45
2022/12/07 03:32:14;;;;;;;3.95;2.05;;;;;;;-6.78;47.47;100594.75;4985458;28;20043;-46
2022/12/07 03:35:06;;;;;;;4.68;1.67;;;;;;;-6.76;47.52;100594.06;4980376;28;20042;-47
2022/12/07 03:38:01;;;;;;;5.00;1.60;;;;;;;-6.78;47.58;100589.72;4971536;28;20050;-46
2022/12/07 03:40:30;;;;;;;4.28;1.90;;;;;;;-6.82;47.69;100596.28;4937216;28;20153;-48
2022/12/07 03:42:56;;;;;;;3.65;1.52;;;;;;;-7.03;47.70;100570.81;4982133;28;20034;-45
2022/12/07 03:45:30;;;;;;;3.72;1.70;;;;;;;-6.86;47.90;100596.94;4973032;28;20046;-50
2022/12/07 03:48:11;;;;;;;3.35;1.75;;;;;;;-6.94;48.18;100596.53;4971363;28;20046;-46
2022/12/07 03:50:45;;;;;;;4.50;2.00;;;;;;;-6.93;48.21;100593.22;4982946;28;20271;-45
2022/12/07 03:53:17;;;;;;;6.15;2.35;;;;;;;-6.96;48.46;100588.00;4972345;28;20448;-50
2022/12/07 03:55:44;;;;;;;5.47;1.70;;;;;;;-7.01;48.40;100588.56;4972753;28;20057;-47
2022/12/07 03:58:17;;;;;;;3.45;1.58;;;;;;;-7.05;48.91;100592.59;4973805;28;20038;-47
2022/12/07 04:00:44;;;;;;;2.53;1.63;;;;;;;-7.07;49.06;100594.22;4986324;28;20521;-48
2022/12/07 04:03:11;;;;;;;6.45;2.03;;;;;;;-7.09;49.51;100588.19;4989363;28;20038;-44
2022/12/07 04:05:37;;;;;;;5.05;2.30;;;;;;;-7.17;49.65;100578.50;4989608;28;20038;-45
2022/12/07 04:08:03;;;;;;;4.57;1.90;;;;;;;-7.14;49.31;100592.16;4989273;28;20130;-50
2022/12/07 04:10:29;;;;;;;4.97;1.95;;;;;;;-7.13;49.84;100582.91;4988080;28;20045;-47
2022/12/07 04:12:55;;;;;;;4.32;2.22;;;;;;;-7.42;49.68;100541.03;4984683;28;20042;-47
2022/12/07 04:15:21;;;;;;;4.47;1.80;;;;;;;-7.20;49.92;100589.31;4984051;28;20046;-47
2022/12/07 04:17:47;;;;;;;5.50;1.70;;;;;;;-7.23;49.88;100585.78;4970387;28;20058;-49
2022/12/07 04:20:14;;;;;;;6.53;2.33;;;;;;;-7.48;50.50;100549.16;4975254;28;20778;-46
2022/12/07 04:22:39;;;;;;;2.30;1.40;;;;;;;-7.28;50.35;100580.50;5004991;28;20034;-46
2022/12/07 04:25:06;;;;;;;4.55;2.22;;;;;;;-7.42;50.48;100561.22;4991014;28;20048;-46
2022/12/07 04:27:32;;;;;;;4.85;2.05;;;;;;;-7.60;50.76;100530.88;4980715;28;20064;-47
2022/12/07 04:29:58;;;;;;;5.88;1.95;;;;;;;-7.37;51.31;100580.88;4989263;28;20034;-48
2022/12/07 04:32:24;;;;;;;6.20;2.17;;;;;;;-7.37;51.39;100582.53;4984960;28;20045;-47
2022/12/07 04:34:50;;;;;;;4.47;2.13;;;;;;;-7.40;51.14;100580.72;4989797;28;20038;-50
2022/12/07 04:37:17;;;;;;;5.85;1.85;;;;;;;-7.40;51.55;100582.38;4993365;28;20037;-45
2022/12/07 04:39:44;;;;;;;3.92;2.35;;;;;;;-7.63;51.86;100547.50;4995270;28;20042;-48
2022/12/07 04:42:10;;;;;;;5.97;1.70;;;;;;;-7.44;52.23;100575.44;4997338;28;20046;-47
2022/12/07 04:44:36;;;;;;;7.50;3.05;;;;;;;-7.67;52.46;100540.56;4956487;28;20085;-46
2022/12/07 04:47:02;;;;;;;4.18;1.80;;;;;;;-7.47;51.98;100583.72;4990314;28;20604;-45
2022/12/07 04:49:28;;;;;;;3.20;1.60;;;;;;;-7.49;52.20;100579.41;4989352;28;20054;-48
2022/12/07 04:51:54;;;;;;;5.38;2.03;;;;;;;-7.51;52.78;100584.34;4986672;28;20097;-45
2022/12/07 04:54:20;;;;;;;6.93;1.67;;;;;;;-7.52;53.08;100577.56;4942337;28;1337616;-48
2022/12/07 04:56:46;;;;;;;5.68;1.52;;;;;;;-7.53;53.41;100583.41;4985763;28;20077;-45
2022/12/07 04:59:12;;;;;;;6.75;2.33;;;;;;;-7.54;53.48;100586.75;4981701;28;20077;-50
2022/12/07 05:01:39;;;;;;;4.35;1.52;;;;;;;-7.54;53.33;100573.25;4972266;28;20077;-46
2022/12/07 05:04:05;;;;;;;4.50;2.03;;;;;;;-7.56;53.63;100583.25;4987594;28;20042;-46
2022/12/07 05:06:31;;;;;;;3.85;1.75;;;;;;;-7.60;53.55;100578.84;4975062;28;20042;-47
2022/12/07 05:08:56;;;;;;;5.88;2.03;;;;;;;-7.55;54.22;100584.13;4989595;28;20046;-48
2022/12/07 05:11:40;;;;;;;4.70;2.40;;;;;;;-7.62;54.45;100582.94;4987831;28;20097;-48
2022/12/07 05:14:11;;;;;;;5.90;2.13;;;;;;;-7.57;54.18;100588.22;4978288;28;20038;-46
2022/12/07 05:16:37;;;;;;;10.27;2.85;;;;;;;-7.57;54.21;100595.78;4987858;28;20056;-48
2022/12/07 05:19:04;;;;;;;6.95;2.08;;;;;;;-7.57;54.25;100595.78;4990408;28;20088;-50
2022/12/07 05:21:30;;;;;;;9.27;2.72;;;;;;;-7.60;54.80;100588.94;4987646;28;20101;-47
2022/12/07 05:23:56;;;;;;;5.88;2.22;;;;;;;-7.59;54.79;100588.16;4989244;28;20046;-50
2022/12/07 05:26:22;;;;;;;3.13;1.48;;;;;;;-7.60;55.11;100585.53;4985388;28;20498;-47
2022/12/07 05:28:52;;;;;;;5.90;2.15;;;;;;;-7.58;54.79;100583.94;4983076;28;20105;-46
2022/12/07 05:31:18;;;;;;;3.28;1.95;;;;;;;-7.59;55.22;100578.06;4970240;28;20035;-47
2022/12/07 05:33:44;;;;;;;7.65;3.05;;;;;;;-7.58;55.33;100583.94;4985558;28;20042;-53
2022/12/07 05:36:10;;;;;;;6.28;2.65;;;;;;;-7.59;55.44;100584.75;4990180;28;20853;-56
2022/12/07 05:38:36;;;;;;;5.50;2.45;;;;;;;-7.76;55.42;100549.41;4990489;28;20046;-44
2022/12/07 05:41:03;;;;;;;3.65;1.10;;;;;;;-7.59;55.72;100582.25;4989561;28;20477;-45
2022/12/07 05:43:29;;;;;;;7.20;2.53;;;;;;;-7.61;55.83;100579.63;4988558;28;20046;-49
2022/12/07 05:45:55;;;;;;;8.63;2.45;;;;;;;-7.61;56.07;100587.19;5003155;28;20816;-47
2022/12/07 05:48:21;;;;;;;10.52;2.20;;;;;;;-7.79;56.13;100549.22;4971383;28;20053;-48
2022/12/07 05:50:48;;;;;;;4.00;2.33;;;;;;;-7.65;56.29;100569.28;4988298;28;20046;-45
2022/12/07 05:53:14;;;;;;;5.47;2.28;;;;;;;-7.58;56.62;100578.91;4989565;28;20093;-44
2022/12/07 05:55:40;;;;;;;5.80;2.40;;;;;;;-7.59;56.67;100580.59;4988855;28;21492;-45
2022/12/07 06:00:50;;;;;;;8.13;2.72;;;;;;;-7.55;57.24;100574.91;4981092;28;20050;-46
2022/12/07 06:03:16;;;;;;;6.15;2.60;;;;;;;-7.53;57.26;100577.47;4965756;28;20038;-45
2022/12/07 06:05:42;;;;;;;6.70;2.63;;;;;;;-7.52;57.00;100575.03;4974925;28;20038;-49
2022/12/07 06:08:15;;;;;;;8.95;3.22;;;;;;;-7.51;57.41;100555.72;4983960;28;20170;-45
2022/12/07 06:10:41;;;;;;;5.65;2.28;;;;;;;-7.35;57.17;100565.81;4974348;28;20038;-45
2022/12/07 06:13:08;;;;;;;6.15;2.75;;;;;;;-7.35;57.80;100573.38;4989189;28;20050;-46
2022/12/07 06:15:37;;;;;;;6.15;2.58;;;;;;;-7.31;57.53;100571.09;4988221;28;20439;-46
2022/12/07 06:18:03;;;;;;;6.45;2.97;;;;;;;-7.29;57.52;100567.00;5003852;28;20141;-49
2022/12/07 06:20:29;;;;;;;7.28;2.95;;;;;;;-7.27;57.30;100567.91;4987452;28;20343;-44
2022/12/07 06:22:55;;;;;;;7.55;3.03;;;;;;;-7.29;57.70;100573.69;4987355;28;20038;-47
2022/12/07 06:25:21;;;;;;;6.95;3.13;;;;;;;-7.21;57.79;100581.66;4987549;28;20120;-46
2022/12/07 06:27:47;;;;;;;7.43;2.80;;;;;;;-7.28;57.96;100566.22;4978752;28;20050;-47
2022/12/07 06:30:13;;;;;;;3.72;1.60;;;;;;;-7.22;57.97;100575.72;4989008;28;20438;-46
2022/12/07 06:32:39;;;;;;;6.28;2.35;;;;;;;-7.27;58.26;100567.91;4988642;28;20046;-47
2022/12/07 06:35:05;;;;;;;8.15;2.80;;;;;;;-7.25;58.05;100568.00;4990063;28;20124;-47
2022/12/07 06:37:31;;;;;;;11.32;4.03;;;;;;;-7.18;58.21;100571.72;4972589;28;20455;-48
2022/12/07 06:39:57;;;;;;;7.82;2.40;;;;;;;-7.11;58.60;100579.66;4972625;28;20046;-45
2022/12/07 06:42:23;;;;;;;8.32;3.08;;;;;;;-7.14;58.42;100571.06;4989757;28;20066;-49
2022/12/07 06:44:49;;;;;;;3.58;1.73;;;;;;;-7.51;58.29;100511.13;4989599;28;20050;-45
2022/12/07 06:47:15;;;;;;;7.47;3.42;;;;;;;-7.16;58.74;100582.75;4989869;28;20133;-45
2022/12/07 06:49:41;;;;;;;6.13;3.03;;;;;;;-7.08;58.87;100578.97;4988417;28;20494;-47
2022/12/07 06:52:07;;;;;;;6.65;2.92;;;;;;;-6.86;58.55;100579.25;5004167;28;20046;-45
2022/12/07 06:54:33;;;;;;;8.75;4.20;;;;;;;-6.47;58.17;100572.69;4981324;28;20150;-46
2022/12/07 06:56:58;;;;;;;6.75;3.03;;;;;;;-5.72;57.16;100569.38;4985866;28;20042;-47
2022/12/07 06:59:24;;;;;;;6.63;3.00;;;;;;;-5.01;55.92;100569.06;4987063;28;20419;-48
2022/12/07 07:01:50;;;;;;;9.07;3.20;;;;;;;-4.67;54.93;100577.28;4980315;28;20054;-48
2022/12/07 07:04:16;;;;;;;11.60;4.43;;;;;;;-4.26;54.04;100586.53;4989771;28;20122;-47
2022/12/07 07:06:42;;;;;;;7.30;3.42;;;;;;;-3.99;53.36;100579.13;4989948;28;20062;-47
2022/12/07 07:09:09;;;;;;;7.07;3.58;;;;;;;-3.62;52.28;100583.91;4988485;28;20769;-49
2022/12/07 07:11:35;;;;;;;7.70;3.42;;;;;;;-3.62;51.88;100577.16;4982951;28;20042;-47
2022/12/07 07:14:02;;;;;;;5.13;2.45;;;;;;;-3.58;51.54;100551.03;4989651;28;20433;-47
2022/12/07 07:16:30;;;;;;;11.52;5.03;;;;;;;-3.08;51.48;100570.59;4989810;28;20065;-45
2022/12/07 07:18:56;;;;;;;8.20;3.90;;;;;;;-2.98;50.50;100569.22;4988204;28;20044;-47
2022/12/07 07:21:22;;;;;;;10.13;3.30;;;;;;;-3.05;49.82;100569.84;4987958;28;20042;-46
2022/12/07 07:23:48;;;;;;;7.38;3.78;;;;;;;-3.33;50.47;100540.03;4972071;28;20074;-46
2022/12/07 07:26:14;;;;;;;14.73;4.32;;;;;;;-3.20;50.69;100560.00;4985966;28;20046;-45
2022/12/07 07:28:40;;;;;;;8.55;3.88;;;;;;;-3.12;50.68;100570.44;4981779;28;20045;-50
2022/12/07 07:31:06;;;;;;;8.82;3.67;;;;;;;-3.02;50.34;100568.25;4971348;28;20070;-48
2022/12/07 07:33:32;;;;;;;8.70;3.53;;;;;;;-3.25;50.04;100527.59;4987727;28;20121;-47
2022/12/07 07:35:58;;;;;;;10.35;3.95;;;;;;;-3.02;49.96;100554.66;4989670;28;20045;-48
2022/12/07 07:38:23;;;;;;;6.55;3.10;;;;;;;-2.70;49.30;100553.19;4993158;28;20439;-45
2022/12/07 07:40:49;;;;;;;10.15;4.18;;;;;;;-2.38;48.83;100555.09;4993006;28;20042;-46
2022/12/07 07:43:15;;;;;;;9.43;4.18;;;;;;;-2.57;48.11;100520.56;4992498;28;20168;-46
2022/12/07 07:45:41;;;;;;;8.23;3.85;;;;;;;-2.44;48.32;100541.28;4992895;28;20038;-47
2022/12/07 07:48:07;;;;;;;13.23;3.55;;;;;;;-2.38;47.92;100538.94;4993120;28;20101;-50
2022/12/07 07:50:33;;;;;;;9.77;4.20;;;;;;;-1.77;46.98;100533.97;4975648;28;20128;-50
2022/12/07 07:52:59;;;;;;;8.70;4.30;;;;;;;-1.11;46.01;100542.63;4991054;28;20132;-47
2022/12/07 07:55:25;;;;;;;6.72;3.20;;;;;;;-1.06;45.41;100492.56;4972515;28;20362;-49
2022/12/07 07:57:51;;;;;;;8.40;3.90;;;;;;;-0.92;45.15;100536.28;4973366;28;20039;-48
2022/12/07 08:00:17;;;;;;;10.45;4.25;;;;;;;-0.99;45.12;100503.78;4988392;28;20043;-49
2022/12/07 08:02:43;;;;;;;14.05;4.78;;;;;;;-0.24;44.17;100537.06;4983716;28;20037;-49
2022/12/07 08:05:10;;;;;;;8.40;4.13;;;;;;;0.08;42.96;100525.88;4991265;28;20494;-47
2022/12/07 08:07:36;;;;;;;8.10;3.55;;;;;;;0.29;42.31;100538.25;4992603;28;20061;-49
2022/12/07 08:10:03;;;;;;;10.68;4.53;;;;;;;0.50;41.76;100531.00;4992784;28;20121;-47
2022/12/07 08:12:29;;;;;;;8.43;4.32;;;;;;;0.41;40.93;100523.16;4990644;28;20030;-48
2022/12/07 08:14:55;;;;;;;10.45;3.40;;;;;;;-0.06;41.13;100522.16;4991730;28;20045;-49
2022/12/07 08:17:21;;;;;;;10.23;4.90;;;;;;;-0.62;42.29;100516.63;4991958;28;20042;-46
2022/12/07 08:19:47;;;;;;;9.40;4.22;;;;;;;-0.16;41.92;100518.53;4992277;28;20042;-45
2022/12/07 08:22:13;;;;;;;11.02;3.95;;;;;;;0.81;40.97;100519.66;4990714;28;20034;-46
2022/12/07 08:24:39;;;;;;;12.77;4.85;;;;;;;1.29;40.46;100532.44;4991877;28;20048;-49
2022/12/07 08:27:05;;;;;;;11.05;3.85;;;;;;;0.97;40.03;100513.09;4991822;28;20553;-44
2022/12/07 08:29:31;;;;;;;13.18;4.75;;;;;;;0.73;39.98;100518.66;4990495;28;20042;-48
2022/12/07 08:31:57;;;;;;;13.23;5.13;;;;;;;0.52;40.38;100516.56;4991274;28;20156;-46
2022/12/07 08:34:23;;;;;;;10.23;4.15;;;;;;;0.40;40.64;100529.09;4991413;28;20532;-47
2022/12/07 08:36:49;;;;;;;10.10;4.25;;;;;;;0.04;41.04;100503.63;4991311;28;20042;-48
2022/12/07 08:39:14;;;;;;;8.98;3.80;;;;;;;0.08;40.30;100497.75;4991750;28;20130;-51
2022/12/07 08:41:40;;;;;;;9.88;4.35;;;;;;;0.09;40.34;100519.94;4990335;28;20514;-49
2022/12/07 08:44:06;;;;;;;8.15;4.15;;;;;;;0.08;40.37;100517.34;4990003;28;20049;-47
2022/12/07 08:46:38;;;;;;;11.07;4.47;;;;;;;0.36;39.92;100510.28;4989627;28;20042;-48
2022/12/07 08:49:08;;;;;;;9.68;4.32;;;;;;;0.73;39.57;100516.09;4973896;28;20038;-49
2022/12/07 08:51:35;;;;;;;9.32;4.18;;;;;;;0.71;39.15;100503.25;4958757;28;20124;-48
2022/12/07 08:54:04;;;;;;;10.98;4.47;;;;;;;1.33;38.74;100502.59;4990783;28;20055;-48
2022/12/07 08:56:30;;;;;;;;;;;;;;;2.19;37.69;100523.50;4990568;28;20046;-48
2022/12/07 08:58:56;;;;;;;9.85;4.47;;;;;;;2.97;36.77;100508.13;4990053;28;19917;-48
2022/12/07 09:01:21;;;;;;;9.27;4.63;;;;;;;2.81;36.05;100489.16;4972375;28;20042;-48
2022/12/07 09:03:47;;;;;;;10.88;4.07;;;;;;;1.99;36.30;100487.34;4983376;28;20173;-48
2022/12/07 09:06:13;;;;;;;10.32;4.53;;;;;;;1.68;36.73;100478.34;4991012;28;20038;-50
2022/12/07 09:08:42;;;;;;;10.77;4.80;;;;;;;1.41;37.11;100473.72;4990939;28;20049;-46
2022/12/07 09:11:08;;;;;;;8.07;3.63;;;;;;;1.80;36.72;100488.78;5006250;28;20046;-46
2022/12/07 09:13:34;;;;;;;9.40;4.07;;;;;;;1.51;36.60;100480.72;4989394;28;20092;-47
2022/12/07 09:16:00;;;;;;;9.90;4.60;;;;;;;1.80;36.57;100468.28;4990954;28;20065;-44
2022/12/07 09:18:26;;;;;;;7.35;4.05;;;;;;;1.88;36.06;100445.31;4989720;28;20426;-46
2022/12/07 09:20:52;;;;;;;10.82;4.82;;;;;;;2.58;36.01;100453.81;4989516;28;20141;-50
2022/12/07 09:23:18;;;;;;;10.52;4.35;;;;;;;3.24;34.50;100474.13;5005620;28;20047;-45
2022/12/07 09:25:44;;;;;;;10.10;4.47;;;;;;;2.79;34.95;100467.72;4989223;28;20046;-46
2022/12/07 09:28:10;;;;;;;13.40;4.47;;;;;;;2.31;35.33;100462.94;4990751;28;20042;-48
2022/12/07 09:30:36;;;;;;;8.57;4.57;;;;;;;3.05;34.58;100462.81;4989493;28;20053;-47
2022/12/07 09:33:01;;;;;;;7.82;3.72;;;;;;;3.66;33.60;100466.72;4989144;28;20062;-46
2022/12/07 09:35:27;;;;;;;9.18;4.18;;;;;;;3.26;33.68;100409.03;4973257;28;20050;-45
2022/12/07 09:37:53;;;;;;;10.93;4.50;;;;;;;3.67;33.09;100463.25;4990432;28;20130;-45
2022/12/07 09:40:21;;;;;;;11.52;4.57;;;;;;;3.49;33.39;100454.59;4989378;28;20065;-50
2022/12/07 09:42:50;;;;;;;11.38;4.30;;;;;;;2.66;33.52;100452.19;4988956;28;20137;-44
2022/12/07 09:45:20;;;;;;;10.07;4.60;;;;;;;0.87;35.49;100442.97;4956830;28;20049;-46
2022/12/07 09:47:46;;;;;;;12.88;4.40;;;;;;;-0.62;37.08;100403.41;4989357;28;20457;-47
2022/12/07 09:50:18;;;;;;;8.25;3.60;;;;;;;-1.16;38.76;100454.03;4989081;28;20042;-46
2022/12/07 09:52:47;;;;;;;9.40;4.43;;;;;;;-1.92;39.93;100446.91;4972648;28;20096;-52
2022/12/07 09:55:16;;;;;;;10.38;4.05;;;;;;;-2.42;41.14;100448.00;5000325;28;20062;-47
2022/12/07 09:57:43;;;;;;;10.90;4.43;;;;;;;-2.95;42.23;100420.94;4969467;28;20467;-49
2022/12/07 10:00:15;;;;;;;11.90;3.22;;;;;;;-3.19;42.73;100436.28;4952555;28;20085;-47
2022/12/07 10:02:44;;;;;;;6.32;3.85;;;;;;;-3.31;43.40;100435.88;4985437;28;20038;-48
2022/12/07 10:05:17;;;;;;;7.82;3.83;;;;;;;-3.45;43.55;100440.47;4989145;28;20125;-47
2022/12/07 10:07:43;;;;;;;9.40;4.03;;;;;;;-3.67;43.99;100445.66;4972599;28;20038;-48
2022/12/07 10:10:24;;;;;;;10.48;3.30;;;;;;;-3.81;44.95;100437.53;4990173;28;20046;-48
2022/12/07 10:13:14;;;;;;;11.93;4.32;;;;;;;-3.95;44.98;100436.19;4972451;28;20042;-46
2022/12/07 10:16:02;;;;;;;7.88;3.47;;;;;;;-4.11;45.26;100439.88;4982266;28;20046;-45
2022/12/07 10:18:36;;;;;;;6.38;3.28;;;;;;;-4.25;45.78;100433.44;4989177;28;20062;-44
2022/12/07 10:21:14;;;;;;;6.05;2.83;;;;;;;-4.32;45.84;100426.41;4989516;28;20041;-44
2022/12/07 10:24:06;;;;;;;9.13;3.08;;;;;;;-4.44;45.99;100436.94;4972199;28;20149;-47
2022/12/07 10:26:46;;;;;;;10.75;3.78;;;;;;;-4.52;46.08;100427.34;4984319;28;20054;-45
2022/12/07 10:29:27;;;;;;;8.30;3.42;;;;;;;-4.43;46.11;100431.06;4971985;28;20524;-45
2022/12/07 10:31:57;;;;;;;9.35;3.00;;;;;;;-4.44;46.57;100428.47;4989373;28;20042;-44
2022/12/07 10:34:26;;;;;;;9.77;3.70;;;;;;;-4.60;46.86;100432.09;4988068;28;20426;-45
2022/12/07 10:36:53;;;;;;;11.05;3.58;;;;;;;-4.67;46.76;100426.75;4968883;28;20065;-48
2022/12/07 10:39:21;;;;;;;8.07;3.40;;;;;;;-4.17;46.66;100439.66;4968916;28;20054;-46
2022/12/07 10:42:02;;;;;;;7.53;3.45;;;;;;;-2.65;44.64;100434.59;4968955;28;20038;-49
2022/12/07 10:44:34;;;;;;;9.43;3.95;;;;;;;-1.43;42.72;100428.69;4968733;28;20101;-45
2022/12/07 10:47:12;;;;;;;10.13;4.22;;;;;;;-0.46;41.17;100415.66;4980828;28;20050;-46
2022/12/07 10:50:12;;;;;;;6.15;3.00;;;;;;;0.54;39.37;100404.00;4988328;28;20129;-46
2022/12/07 10:53:03;;;;;;;8.40;3.22;;;;;;;0.83;38.59;100402.81;4980860;28;20078;-46
2022/12/07 10:55:40;;;;;;;8.75;4.13;;;;;;;1.28;37.28;100398.38;4968705;28;20062;-46
2022/12/07 10:58:32;;;;;;;9.50;3.55;;;;;;;2.29;36.44;100408.19;4979256;28;20042;-46
2022/12/07 11:01:05;;;;;;;7.78;3.38;;;;;;;2.19;35.94;100402.94;4988292;28;20074;-48
2022/12/07 11:03:37;;;;;;;13.48;4.30;;;;;;;2.87;35.51;100390.78;4989387;28;20510;-49
2022/12/07 11:06:06;;;;;;;10.10;3.85;;;;;;;2.48;34.65;100397.25;4988034;28;20046;-45
2022/12/07 11:09:22;;;;;;;13.52;4.03;;;;;;;2.73;34.68;100387.22;4987518;28;20038;-45
2022/12/07 11:11:59;;;;;;;10.55;4.47;;;;;;;3.36;33.83;100386.81;4935158;29;20035;-46
2022/12/07 11:14:36;;;;;;;11.50;4.05;;;;;;;3.69;33.60;100361.28;4990374;28;20089;-48
2022/12/07 11:17:06;;;;;;;7.65;3.58;;;;;;;3.48;32.89;100391.16;4975363;28;20062;-49
2022/12/07 11:19:53;;;;;;;9.10;4.10;;;;;;;2.96;33.59;100373.72;4992654;28;20080;-48
2022/12/07 11:22:41;;;;;;;9.60;4.00;;;;;;;3.37;33.17;100366.28;4991552;28;20061;-48
2022/12/07 11:25:25;;;;;;;12.82;4.13;;;;;;;2.92;32.99;100371.97;4991604;28;20089;-49
2022/12/07 11:28:28;;;;;;;8.32;4.35;;;;;;;3.00;33.22;100372.03;4992255;28;20537;-50
2022/12/07 11:31:13;;;;;;;7.50;3.65;;;;;;;2.93;33.11;100380.56;4992900;28;20438;-46
2022/12/07 11:33:39;;;;;;;11.48;4.13;;;;;;;2.51;33.26;100378.47;5007455;28;20441;-46
2022/12/07 11:36:29;;;;;;;7.82;4.22;;;;;;;2.47;33.70;100376.72;4991409;28;20137;-47
2022/12/07 11:39:07;;;;;;;11.98;4.20;;;;;;;2.71;33.51;100379.50;4992295;28;20042;-45
2022/12/07 11:41:36;;;;;;;7.88;3.60;;;;;;;2.64;33.27;100379.44;4991242;28;20081;-46